sensor_id;sensor_type;location;lat;lon;timestamp;P1;durP1;ratioP1;P2;durP2;ratioP2
20324;SDS011;10320;49.482;11.256;2022-11-06T00:00:25;33.97;;;17.80;;
20324;SDS011;10320;49.482;11.256;2022-11-06T00:02:51;32.13;;;18.23;;
20324;SDS011;10320;49.482;11.256;2022-11-06T00:05:17;26.00;;;16.40;;
20324;SDS011;10320;49.482;11.256;2022-11-06T00:08:02;32.20;;;18.13;;
20324;SDS011;10320;49.482;11.256;2022-11-06T00:10:28;34.60;;;18.30;;
20324;SDS011;10320;49.482;11.256;2022-11-06T00:12:55;35.53;;;17.73;;
20324;SDS011;10320;49.482;11.256;2022-11-06T00:15:21;40.70;;;20.17;;
20324;SDS011;10320;49.482;11.256;2022-11-06T00:17:48;34.43;;;18.90;;
20324;SDS011;10320;49.482;11.256;2022-11-06T00:20:14;32.93;;;18.47;;
20324;SDS011;10320;49.482;11.256;2022-11-06T00:22:41;33.57;;;18.80;;
20324;SDS011;10320;49.482;11.256;2022-11-06T00:25:07;32.43;;;18.97;;
20324;SDS011;10320;49.482;11.256;2022-11-06T00:27:37;33.60;;;18.50;;
20324;SDS011;10320;49.482;11.256;2022-11-06T00:30:04;32.27;;;17.73;;
20324;SDS011;10320;49.482;11.256;2022-11-06T00:32:30;28.87;;;16.90;;
20324;SDS011;10320;49.482;11.256;2022-11-06T00:34:56;34.27;;;17.90;;
20324;SDS011;10320;49.482;11.256;2022-11-06T00:37:22;32.77;;;18.13;;
20324;SDS011;10320;49.482;11.256;2022-11-06T00:39:48;38.70;;;19.07;;
20324;SDS011;10320;49.482;11.256;2022-11-06T00:42:14;32.47;;;18.10;;
20324;SDS011;10320;49.482;11.256;2022-11-06T00:44:40;31.00;;;17.90;;
20324;SDS011;10320;49.482;11.256;2022-11-06T00:47:07;31.67;;;17.43;;
20324;SDS011;10320;49.482;11.256;2022-11-06T00:49:34;32.60;;;18.37;;
20324;SDS011;10320;49.482;11.256;2022-11-06T00:52:00;36.17;;;19.17;;
20324;SDS011;10320;49.482;11.256;2022-11-06T00:54:26;38.03;;;20.50;;
20324;SDS011;10320;49.482;11.256;2022-11-06T00:56:52;43.90;;;22.37;;
20324;SDS011;10320;49.482;11.256;2022-11-06T00:59:18;37.47;;;20.23;;
20324;SDS011;10320;49.482;11.256;2022-11-06T01:01:44;43.47;;;22.63;;
20324;SDS011;10320;49.482;11.256;2022-11-06T01:06:37;46.73;;;22.00;;
20324;SDS011;10320;49.482;11.256;2022-11-06T01:09:04;44.77;;;21.90;;
20324;SDS011;10320;49.482;11.256;2022-11-06T01:11:35;51.47;;;23.00;;
20324;SDS011;10320;49.482;11.256;2022-11-06T01:14:03;59.80;;;23.90;;
20324;SDS011;10320;49.482;11.256;2022-11-06T01:16:29;45.27;;;21.90;;
20324;SDS011;10320;49.482;11.256;2022-11-06T01:18:55;44.13;;;20.57;;
20324;SDS011;10320;49.482;11.256;2022-11-06T01:21:22;72.47;;;24.40;;
20324;SDS011;10320;49.482;11.256;2022-11-06T01:23:52;45.60;;;22.30;;
20324;SDS011;10320;49.482;11.256;2022-11-06T01:26:19;64.70;;;24.23;;
20324;SDS011;10320;49.482;11.256;2022-11-06T01:28:45;52.10;;;22.10;;
20324;SDS011;10320;49.482;11.256;2022-11-06T01:31:13;63.70;;;24.30;;
20324;SDS011;10320;49.482;11.256;2022-11-06T01:33:39;60.67;;;24.53;;
20324;SDS011;10320;49.482;11.256;2022-11-06T01:36:09;87.03;;;27.17;;
20324;SDS011;10320;49.482;11.256;2022-11-06T01:38:35;62.83;;;23.97;;
20324;SDS011;10320;49.482;11.256;2022-11-06T01:41:01;56.90;;;23.70;;
20324;SDS011;10320;49.482;11.256;2022-11-06T01:46:09;118.23;;;30.13;;
20324;SDS011;10320;49.482;11.256;2022-11-06T01:48:35;118.30;;;29.63;;
20324;SDS011;10320;49.482;11.256;2022-11-06T01:51:01;78.90;;;24.93;;
20324;SDS011;10320;49.482;11.256;2022-11-06T01:53:27;59.40;;;23.57;;
20324;SDS011;10320;49.482;11.256;2022-11-06T01:55:56;84.33;;;27.10;;
20324;SDS011;10320;49.482;11.256;2022-11-06T01:58:23;82.13;;;26.10;;
20324;SDS011;10320;49.482;11.256;2022-11-06T02:00:50;81.50;;;26.03;;
20324;SDS011;10320;49.482;11.256;2022-11-06T02:03:16;57.63;;;23.80;;
20324;SDS011;10320;49.482;11.256;2022-11-06T02:05:42;65.97;;;23.50;;
20324;SDS011;10320;49.482;11.256;2022-11-06T02:08:09;59.93;;;23.30;;
20324;SDS011;10320;49.482;11.256;2022-11-06T02:10:36;60.67;;;23.37;;
20324;SDS011;10320;49.482;11.256;2022-11-06T02:13:14;46.20;;;21.33;;
20324;SDS011;10320;49.482;11.256;2022-11-06T02:21:35;45.33;;;20.10;;
20324;SDS011;10320;49.482;11.256;2022-11-06T02:28:57;54.80;;;20.90;;
20324;SDS011;10320;49.482;11.256;2022-11-06T02:31:25;39.37;;;19.07;;
20324;SDS011;10320;49.482;11.256;2022-11-06T02:33:54;39.47;;;18.63;;
20324;SDS011;10320;49.482;11.256;2022-11-06T02:36:24;40.33;;;18.40;;
20324;SDS011;10320;49.482;11.256;2022-11-06T02:38:52;32.70;;;17.20;;
20324;SDS011;10320;49.482;11.256;2022-11-06T02:41:24;32.17;;;17.27;;
20324;SDS011;10320;49.482;11.256;2022-11-06T02:43:52;36.00;;;17.77;;
20324;SDS011;10320;49.482;11.256;2022-11-06T02:46:42;44.80;;;18.43;;
20324;SDS011;10320;49.482;11.256;2022-11-06T02:49:13;53.40;;;20.30;;
20324;SDS011;10320;49.482;11.256;2022-11-06T02:51:46;56.07;;;21.30;;
20324;SDS011;10320;49.482;11.256;2022-11-06T02:54:13;59.93;;;22.07;;
20324;SDS011;10320;49.482;11.256;2022-11-06T02:56:41;41.23;;;19.47;;
20324;SDS011;10320;49.482;11.256;2022-11-06T02:59:20;45.67;;;18.43;;
20324;SDS011;10320;49.482;11.256;2022-11-06T03:01:48;53.90;;;20.40;;
20324;SDS011;10320;49.482;11.256;2022-11-06T03:04:18;38.37;;;17.63;;
20324;SDS011;10320;49.482;11.256;2022-11-06T03:06:55;36.27;;;17.60;;
20324;SDS011;10320;49.482;11.256;2022-11-06T03:09:26;39.30;;;17.67;;
20324;SDS011;10320;49.482;11.256;2022-11-06T03:11:58;39.10;;;18.07;;
20324;SDS011;10320;49.482;11.256;2022-11-06T03:14:28;41.93;;;18.83;;
20324;SDS011;10320;49.482;11.256;2022-11-06T03:17:00;45.53;;;18.90;;
20324;SDS011;10320;49.482;11.256;2022-11-06T03:22:17;36.93;;;18.23;;
20324;SDS011;10320;49.482;11.256;2022-11-06T03:27:12;31.93;;;18.23;;
20324;SDS011;10320;49.482;11.256;2022-11-06T03:34:34;37.90;;;18.40;;
20324;SDS011;10320;49.482;11.256;2022-11-06T03:37:04;34.30;;;17.37;;
20324;SDS011;10320;49.482;11.256;2022-11-06T03:39:34;29.67;;;16.97;;
20324;SDS011;10320;49.482;11.256;2022-11-06T03:42:03;31.77;;;16.80;;
20324;SDS011;10320;49.482;11.256;2022-11-06T03:44:31;30.70;;;16.73;;
20324;SDS011;10320;49.482;11.256;2022-11-06T03:47:10;30.67;;;16.57;;
20324;SDS011;10320;49.482;11.256;2022-11-06T03:49:40;29.73;;;16.13;;
20324;SDS011;10320;49.482;11.256;2022-11-06T03:52:12;30.37;;;15.63;;
20324;SDS011;10320;49.482;11.256;2022-11-06T03:54:52;42.10;;;18.70;;
20324;SDS011;10320;49.482;11.256;2022-11-06T03:57:24;34.60;;;17.73;;
20324;SDS011;10320;49.482;11.256;2022-11-06T03:59:53;51.80;;;19.30;;
20324;SDS011;10320;49.482;11.256;2022-11-06T04:02:20;46.40;;;19.00;;
20324;SDS011;10320;49.482;11.256;2022-11-06T04:04:52;37.87;;;17.47;;
20324;SDS011;10320;49.482;11.256;2022-11-06T04:07:21;73.13;;;22.17;;
20324;SDS011;10320;49.482;11.256;2022-11-06T04:09:50;61.87;;;21.43;;
20324;SDS011;10320;49.482;11.256;2022-11-06T04:12:36;31.27;;;17.03;;
20324;SDS011;10320;49.482;11.256;2022-11-06T04:15:22;26.90;;;16.37;;
20324;SDS011;10320;49.482;11.256;2022-11-06T04:17:48;44.97;;;18.17;;
20324;SDS011;10320;49.482;11.256;2022-11-06T04:20:18;30.67;;;16.47;;
20324;SDS011;10320;49.482;11.256;2022-11-06T04:26:24;31.90;;;16.77;;
20324;SDS011;10320;49.482;11.256;2022-11-06T04:31:26;33.93;;;16.37;;
20324;SDS011;10320;49.482;11.256;2022-11-06T04:33:56;70.93;;;20.70;;
20324;SDS011;10320;49.482;11.256;2022-11-06T04:36:43;66.03;;;19.13;;
20324;SDS011;10320;49.482;11.256;2022-11-06T04:46:54;72.53;;;18.63;;
20324;SDS011;10320;49.482;11.256;2022-11-06T04:49:22;74.37;;;19.07;;
20324;SDS011;10320;49.482;11.256;2022-11-06T04:51:48;92.30;;;21.40;;
20324;SDS011;10320;49.482;11.256;2022-11-06T04:54:15;68.40;;;20.47;;
20324;SDS011;10320;49.482;11.256;2022-11-06T04:56:42;53.20;;;18.23;;
20324;SDS011;10320;49.482;11.256;2022-11-06T04:59:09;74.07;;;19.23;;
20324;SDS011;10320;49.482;11.256;2022-11-06T05:01:37;59.00;;;16.10;;
20324;SDS011;10320;49.482;11.256;2022-11-06T05:04:03;116.57;;;20.60;;
20324;SDS011;10320;49.482;11.256;2022-11-06T05:06:29;65.93;;;18.13;;
20324;SDS011;10320;49.482;11.256;2022-11-06T05:08:55;68.30;;;17.90;;
20324;SDS011;10320;49.482;11.256;2022-11-06T05:11:22;80.77;;;18.83;;
20324;SDS011;10320;49.482;11.256;2022-11-06T05:13:48;114.73;;;23.43;;
20324;SDS011;10320;49.482;11.256;2022-11-06T05:16:14;72.80;;;17.30;;
20324;SDS011;10320;49.482;11.256;2022-11-06T05:18:41;55.97;;;15.13;;
20324;SDS011;10320;49.482;11.256;2022-11-06T05:21:09;89.03;;;20.33;;
20324;SDS011;10320;49.482;11.256;2022-11-06T05:23:54;49.80;;;14.27;;
20324;SDS011;10320;49.482;11.256;2022-11-06T05:26:20;61.67;;;14.97;;
20324;SDS011;10320;49.482;11.256;2022-11-06T05:28:46;53.80;;;15.67;;
20324;SDS011;10320;49.482;11.256;2022-11-06T05:31:12;39.93;;;15.00;;
20324;SDS011;10320;49.482;11.256;2022-11-06T05:33:38;54.43;;;15.00;;
20324;SDS011;10320;49.482;11.256;2022-11-06T05:36:04;65.33;;;16.60;;
20324;SDS011;10320;49.482;11.256;2022-11-06T05:38:31;58.63;;;16.20;;
20324;SDS011;10320;49.482;11.256;2022-11-06T05:40:57;61.17;;;16.57;;
20324;SDS011;10320;49.482;11.256;2022-11-06T05:43:23;33.83;;;14.07;;
20324;SDS011;10320;49.482;11.256;2022-11-06T05:45:49;42.70;;;14.30;;
20324;SDS011;10320;49.482;11.256;2022-11-06T05:48:15;45.73;;;14.37;;
20324;SDS011;10320;49.482;11.256;2022-11-06T05:50:43;28.73;;;12.30;;
20324;SDS011;10320;49.482;11.256;2022-11-06T05:53:09;34.70;;;13.73;;
20324;SDS011;10320;49.482;11.256;2022-11-06T05:55:35;27.33;;;12.50;;
20324;SDS011;10320;49.482;11.256;2022-11-06T05:58:02;38.40;;;13.27;;
20324;SDS011;10320;49.482;11.256;2022-11-06T06:00:28;31.77;;;13.13;;
20324;SDS011;10320;49.482;11.256;2022-11-06T06:02:54;20.90;;;11.93;;
20324;SDS011;10320;49.482;11.256;2022-11-06T06:05:20;19.97;;;11.13;;
20324;SDS011;10320;49.482;11.256;2022-11-06T06:07:47;36.73;;;14.57;;
20324;SDS011;10320;49.482;11.256;2022-11-06T06:10:13;30.73;;;13.47;;
20324;SDS011;10320;49.482;11.256;2022-11-06T06:12:39;35.50;;;12.83;;
20324;SDS011;10320;49.482;11.256;2022-11-06T06:15:06;46.40;;;12.63;;
20324;SDS011;10320;49.482;11.256;2022-11-06T06:17:32;61.60;;;13.67;;
20324;SDS011;10320;49.482;11.256;2022-11-06T06:19:58;68.43;;;15.00;;
20324;SDS011;10320;49.482;11.256;2022-11-06T06:22:24;66.37;;;13.97;;
20324;SDS011;10320;49.482;11.256;2022-11-06T06:24:50;139.67;;;20.13;;
20324;SDS011;10320;49.482;11.256;2022-11-06T06:27:16;66.70;;;14.07;;
20324;SDS011;10320;49.482;11.256;2022-11-06T06:29:42;46.83;;;13.00;;
20324;SDS011;10320;49.482;11.256;2022-11-06T06:32:08;98.93;;;17.70;;
20324;SDS011;10320;49.482;11.256;2022-11-06T06:34:34;80.70;;;16.20;;
20324;SDS011;10320;49.482;11.256;2022-11-06T06:37:00;52.73;;;13.17;;
20324;SDS011;10320;49.482;11.256;2022-11-06T06:39:26;46.13;;;13.80;;
20324;SDS011;10320;49.482;11.256;2022-11-06T06:41:52;45.70;;;13.50;;
20324;SDS011;10320;49.482;11.256;2022-11-06T06:44:18;47.57;;;13.30;;
20324;SDS011;10320;49.482;11.256;2022-11-06T06:46:44;65.43;;;16.50;;
20324;SDS011;10320;49.482;11.256;2022-11-06T06:49:10;63.97;;;16.00;;
20324;SDS011;10320;49.482;11.256;2022-11-06T06:51:36;53.63;;;21.87;;
20324;SDS011;10320;49.482;11.256;2022-11-06T06:54:02;163.80;;;42.87;;
20324;SDS011;10320;49.482;11.256;2022-11-06T06:56:28;51.10;;;16.33;;
20324;SDS011;10320;49.482;11.256;2022-11-06T06:58:54;60.40;;;15.70;;
20324;SDS011;10320;49.482;11.256;2022-11-06T07:01:20;46.97;;;14.63;;
20324;SDS011;10320;49.482;11.256;2022-11-06T07:03:46;72.50;;;17.20;;
20324;SDS011;10320;49.482;11.256;2022-11-06T07:06:12;77.53;;;18.47;;
20324;SDS011;10320;49.482;11.256;2022-11-06T07:08:38;86.53;;;17.97;;
20324;SDS011;10320;49.482;11.256;2022-11-06T07:11:05;79.43;;;18.27;;
20324;SDS011;10320;49.482;11.256;2022-11-06T07:13:31;40.53;;;14.40;;
20324;SDS011;10320;49.482;11.256;2022-11-06T07:15:57;43.13;;;14.97;;
20324;SDS011;10320;49.482;11.256;2022-11-06T07:18:23;54.63;;;16.30;;
20324;SDS011;10320;49.482;11.256;2022-11-06T07:20:50;59.40;;;25.33;;
20324;SDS011;10320;49.482;11.256;2022-11-06T07:23:16;87.30;;;53.03;;
20324;SDS011;10320;49.482;11.256;2022-11-06T07:25:42;59.30;;;38.13;;
20324;SDS011;10320;49.482;11.256;2022-11-06T07:28:08;46.67;;;27.70;;
20324;SDS011;10320;49.482;11.256;2022-11-06T07:30:34;40.57;;;19.40;;
20324;SDS011;10320;49.482;11.256;2022-11-06T07:33:01;29.53;;;16.07;;
20324;SDS011;10320;49.482;11.256;2022-11-06T07:35:27;27.53;;;15.53;;
20324;SDS011;10320;49.482;11.256;2022-11-06T07:37:53;29.07;;;20.93;;
20324;SDS011;10320;49.482;11.256;2022-11-06T07:40:19;31.07;;;20.67;;
20324;SDS011;10320;49.482;11.256;2022-11-06T07:42:45;27.70;;;16.37;;
20324;SDS011;10320;49.482;11.256;2022-11-06T07:45:12;26.83;;;15.93;;
20324;SDS011;10320;49.482;11.256;2022-11-06T07:47:38;37.10;;;17.93;;
20324;SDS011;10320;49.482;11.256;2022-11-06T07:50:05;41.53;;;26.40;;
20324;SDS011;10320;49.482;11.256;2022-11-06T07:52:31;37.87;;;18.93;;
20324;SDS011;10320;49.482;11.256;2022-11-06T07:54:57;57.43;;;32.40;;
20324;SDS011;10320;49.482;11.256;2022-11-06T07:57:23;46.07;;;18.00;;
20324;SDS011;10320;49.482;11.256;2022-11-06T07:59:49;52.37;;;22.60;;
20324;SDS011;10320;49.482;11.256;2022-11-06T08:02:16;39.10;;;21.70;;
20324;SDS011;10320;49.482;11.256;2022-11-06T08:04:42;48.90;;;23.00;;
20324;SDS011;10320;49.482;11.256;2022-11-06T08:07:08;43.00;;;22.43;;
20324;SDS011;10320;49.482;11.256;2022-11-06T08:09:34;45.33;;;26.27;;
20324;SDS011;10320;49.482;11.256;2022-11-06T08:12:00;57.27;;;31.70;;
20324;SDS011;10320;49.482;11.256;2022-11-06T08:14:26;36.57;;;22.30;;
20324;SDS011;10320;49.482;11.256;2022-11-06T08:16:52;42.57;;;27.03;;
20324;SDS011;10320;49.482;11.256;2022-11-06T08:19:19;35.20;;;19.17;;
20324;SDS011;10320;49.482;11.256;2022-11-06T08:21:45;34.13;;;17.20;;
20324;SDS011;10320;49.482;11.256;2022-11-06T08:24:11;24.50;;;16.63;;
20324;SDS011;10320;49.482;11.256;2022-11-06T08:26:37;29.77;;;15.97;;
20324;SDS011;10320;49.482;11.256;2022-11-06T08:29:03;22.37;;;16.23;;
20324;SDS011;10320;49.482;11.256;2022-11-06T08:31:29;25.33;;;15.87;;
20324;SDS011;10320;49.482;11.256;2022-11-06T08:33:55;23.63;;;16.30;;
20324;SDS011;10320;49.482;11.256;2022-11-06T08:36:21;22.47;;;16.03;;
20324;SDS011;10320;49.482;11.256;2022-11-06T08:38:47;25.03;;;15.67;;
20324;SDS011;10320;49.482;11.256;2022-11-06T08:41:13;20.83;;;15.90;;
20324;SDS011;10320;49.482;11.256;2022-11-06T08:43:40;19.67;;;16.03;;
20324;SDS011;10320;49.482;11.256;2022-11-06T08:46:06;21.47;;;15.37;;
20324;SDS011;10320;49.482;11.256;2022-11-06T08:48:33;20.33;;;14.70;;
20324;SDS011;10320;49.482;11.256;2022-11-06T08:50:59;22.27;;;16.70;;
20324;SDS011;10320;49.482;11.256;2022-11-06T08:53:25;20.63;;;15.63;;
20324;SDS011;10320;49.482;11.256;2022-11-06T08:55:51;21.67;;;16.00;;
20324;SDS011;10320;49.482;11.256;2022-11-06T08:58:17;20.63;;;15.70;;
20324;SDS011;10320;49.482;11.256;2022-11-06T09:00:43;20.83;;;15.73;;
20324;SDS011;10320;49.482;11.256;2022-11-06T09:03:10;18.50;;;15.23;;
20324;SDS011;10320;49.482;11.256;2022-11-06T09:05:40;17.80;;;15.23;;
20324;SDS011;10320;49.482;11.256;2022-11-06T09:08:06;16.57;;;14.70;;
20324;SDS011;10320;49.482;11.256;2022-11-06T09:10:32;17.80;;;15.10;;
20324;SDS011;10320;49.482;11.256;2022-11-06T09:12:58;16.97;;;14.60;;
20324;SDS011;10320;49.482;11.256;2022-11-06T09:15:25;19.20;;;15.00;;
20324;SDS011;10320;49.482;11.256;2022-11-06T09:17:54;17.13;;;14.20;;
20324;SDS011;10320;49.482;11.256;2022-11-06T09:20:20;17.00;;;14.70;;
20324;SDS011;10320;49.482;11.256;2022-11-06T09:22:47;17.90;;;15.17;;
20324;SDS011;10320;49.482;11.256;2022-11-06T09:25:13;16.43;;;13.53;;
20324;SDS011;10320;49.482;11.256;2022-11-06T09:27:58;14.57;;;13.07;;
20324;SDS011;10320;49.482;11.256;2022-11-06T09:30:24;18.00;;;14.40;;
20324;SDS011;10320;49.482;11.256;2022-11-06T09:32:51;14.93;;;13.40;;
20324;SDS011;10320;49.482;11.256;2022-11-06T09:35:18;14.80;;;13.30;;
20324;SDS011;10320;49.482;11.256;2022-11-06T09:37:45;16.07;;;13.90;;
20324;SDS011;10320;49.482;11.256;2022-11-06T09:40:29;16.20;;;14.50;;
20324;SDS011;10320;49.482;11.256;2022-11-06T09:43:14;16.23;;;14.17;;
20324;SDS011;10320;49.482;11.256;2022-11-06T09:45:42;16.03;;;14.40;;
20324;SDS011;10320;49.482;11.256;2022-11-06T09:48:16;19.15;;;17.25;;
20324;SDS011;10320;49.482;11.256;2022-11-06T09:50:46;18.10;;;16.10;;
20324;SDS011;10320;49.482;11.256;2022-11-06T09:53:28;18.17;;;16.20;;
20324;SDS011;10320;49.482;11.256;2022-11-06T09:55:56;18.23;;;16.43;;
20324;SDS011;10320;49.482;11.256;2022-11-06T09:58:36;19.13;;;16.40;;
20324;SDS011;10320;49.482;11.256;2022-11-06T10:01:05;19.03;;;16.97;;
20324;SDS011;10320;49.482;11.256;2022-11-06T10:03:38;18.00;;;16.10;;
20324;SDS011;10320;49.482;11.256;2022-11-06T10:06:05;18.27;;;16.27;;
20324;SDS011;10320;49.482;11.256;2022-11-06T10:08:31;19.27;;;17.00;;
20324;SDS011;10320;49.482;11.256;2022-11-06T10:13:40;18.10;;;16.20;;
20324;SDS011;10320;49.482;11.256;2022-11-06T10:18:47;19.10;;;16.23;;
20324;SDS011;10320;49.482;11.256;2022-11-06T10:26:18;16.77;;;14.47;;
20324;SDS011;10320;49.482;11.256;2022-11-06T10:31:23;17.20;;;15.30;;
20324;SDS011;10320;49.482;11.256;2022-11-06T10:33:58;16.53;;;14.37;;
20324;SDS011;10320;49.482;11.256;2022-11-06T10:38:53;14.90;;;13.27;;
20324;SDS011;10320;49.482;11.256;2022-11-06T10:41:21;15.57;;;12.60;;
20324;SDS011;10320;49.482;11.256;2022-11-06T10:43:58;13.70;;;11.70;;
20324;SDS011;10320;49.482;11.256;2022-11-06T10:46:34;13.23;;;11.93;;
20324;SDS011;10320;49.482;11.256;2022-11-06T10:49:02;12.57;;;10.87;;
20324;SDS011;10320;49.482;11.256;2022-11-06T10:59:06;11.07;;;9.97;;
20324;SDS011;10320;49.482;11.256;2022-11-06T11:01:33;10.57;;;9.47;;
20324;SDS011;10320;49.482;11.256;2022-11-06T11:03:59;10.63;;;9.53;;
20324;SDS011;10320;49.482;11.256;2022-11-06T11:06:28;10.33;;;8.87;;
20324;SDS011;10320;49.482;11.256;2022-11-06T11:09:33;11.00;;;9.90;;
20324;SDS011;10320;49.482;11.256;2022-11-06T11:11:58;11.33;;;10.20;;
20324;SDS011;10320;49.482;11.256;2022-11-06T11:14:29;10.87;;;9.73;;
20324;SDS011;10320;49.482;11.256;2022-11-06T11:16:59;11.00;;;9.50;;
20324;SDS011;10320;49.482;11.256;2022-11-06T11:21:58;10.63;;;9.10;;
20324;SDS011;10320;49.482;11.256;2022-11-06T11:24:24;10.17;;;9.17;;
20324;SDS011;10320;49.482;11.256;2022-11-06T11:26:54;9.83;;;8.83;;
20324;SDS011;10320;49.482;11.256;2022-11-06T11:29:26;10.33;;;9.33;;
20324;SDS011;10320;49.482;11.256;2022-11-06T11:32:13;11.00;;;9.00;;
20324;SDS011;10320;49.482;11.256;2022-11-06T11:34:58;9.73;;;8.77;;
20324;SDS011;10320;49.482;11.256;2022-11-06T11:37:31;9.13;;;8.23;;
20324;SDS011;10320;49.482;11.256;2022-11-06T11:40:25;8.83;;;7.93;;
20324;SDS011;10320;49.482;11.256;2022-11-06T11:43:21;9.40;;;7.60;;
20324;SDS011;10320;49.482;11.256;2022-11-06T11:53:54;8.97;;;7.87;;
20324;SDS011;10320;49.482;11.256;2022-11-06T11:56:23;11.93;;;8.70;;
20324;SDS011;10320;49.482;11.256;2022-11-06T11:58:50;9.27;;;8.23;;
20324;SDS011;10320;49.482;11.256;2022-11-06T12:01:17;9.77;;;8.77;;
20324;SDS011;10320;49.482;11.256;2022-11-06T12:03:45;9.13;;;7.80;;
20324;SDS011;10320;49.482;11.256;2022-11-06T12:06:15;8.90;;;8.10;;
20324;SDS011;10320;49.482;11.256;2022-11-06T12:08:49;8.80;;;7.77;;
20324;SDS011;10320;49.482;11.256;2022-11-06T12:11:20;8.33;;;7.53;;
20324;SDS011;10320;49.482;11.256;2022-11-06T12:17:34;8.87;;;7.97;;
20324;SDS011;10320;49.482;11.256;2022-11-06T12:19:41;8.80;;;7.90;;
20324;SDS011;10320;49.482;11.256;2022-11-06T12:22:11;8.77;;;7.87;;
20324;SDS011;10320;49.482;11.256;2022-11-06T12:24:48;8.60;;;7.70;;
20324;SDS011;10320;49.482;11.256;2022-11-06T12:27:19;8.83;;;8.03;;
20324;SDS011;10320;49.482;11.256;2022-11-06T12:29:47;8.80;;;7.90;;
20324;SDS011;10320;49.482;11.256;2022-11-06T12:37:25;8.67;;;7.87;;
20324;SDS011;10320;49.482;11.256;2022-11-06T12:40:28;9.10;;;8.20;;
20324;SDS011;10320;49.482;11.256;2022-11-06T12:50:49;9.77;;;8.83;;
20324;SDS011;10320;49.482;11.256;2022-11-06T12:53:20;8.97;;;8.07;;
20324;SDS011;10320;49.482;11.256;2022-11-06T12:56:01;9.20;;;8.30;;
20324;SDS011;10320;49.482;11.256;2022-11-06T12:58:41;9.43;;;8.53;;
20324;SDS011;10320;49.482;11.256;2022-11-06T13:01:17;9.57;;;8.67;;
20324;SDS011;10320;49.482;11.256;2022-11-06T13:08:58;8.83;;;8.03;;
20324;SDS011;10320;49.482;11.256;2022-11-06T13:11:32;9.80;;;8.80;;
20324;SDS011;10320;49.482;11.256;2022-11-06T13:18:53;9.83;;;8.93;;
20324;SDS011;10320;49.482;11.256;2022-11-06T13:23:50;10.63;;;9.63;;
20324;SDS011;10320;49.482;11.256;2022-11-06T13:26:19;12.93;;;11.63;;
20324;SDS011;10320;49.482;11.256;2022-11-06T13:28:49;11.60;;;10.23;;
20324;SDS011;10320;49.482;11.256;2022-11-06T13:31:19;11.13;;;9.83;;
20324;SDS011;10320;49.482;11.256;2022-11-06T13:33:48;10.93;;;9.83;;
20324;SDS011;10320;49.482;11.256;2022-11-06T13:36:17;10.03;;;9.03;;
20324;SDS011;10320;49.482;11.256;2022-11-06T13:38:54;10.30;;;9.30;;
20324;SDS011;10320;49.482;11.256;2022-11-06T13:41:24;9.87;;;8.87;;
20324;SDS011;10320;49.482;11.256;2022-11-06T13:46:24;10.53;;;9.40;;
20324;SDS011;10320;49.482;11.256;2022-11-06T13:51:38;10.67;;;9.57;;
20324;SDS011;10320;49.482;11.256;2022-11-06T13:54:20;11.40;;;10.20;;
20324;SDS011;10320;49.482;11.256;2022-11-06T14:02:34;10.63;;;9.53;;
20324;SDS011;10320;49.482;11.256;2022-11-06T14:07:47;11.13;;;10.03;;
20324;SDS011;10320;49.482;11.256;2022-11-06T14:10:25;11.70;;;10.50;;
20324;SDS011;10320;49.482;11.256;2022-11-06T14:12:55;10.33;;;9.33;;
20324;SDS011;10320;49.482;11.256;2022-11-06T14:15:30;11.00;;;9.43;;
20324;SDS011;10320;49.482;11.256;2022-11-06T14:17:57;10.67;;;9.57;;
20324;SDS011;10320;49.482;11.256;2022-11-06T14:20:29;11.40;;;10.27;;
20324;SDS011;10320;49.482;11.256;2022-11-06T14:23:01;10.63;;;9.63;;
20324;SDS011;10320;49.482;11.256;2022-11-06T14:28:28;10.10;;;9.10;;
20324;SDS011;10320;49.482;11.256;2022-11-06T14:30:55;9.83;;;8.87;;
20324;SDS011;10320;49.482;11.256;2022-11-06T14:36:30;10.23;;;9.23;;
20324;SDS011;10320;49.482;11.256;2022-11-06T14:38:54;9.83;;;8.83;;
20324;SDS011;10320;49.482;11.256;2022-11-06T14:44:21;9.70;;;8.70;;
20324;SDS011;10320;49.482;11.256;2022-11-06T14:46:49;9.97;;;8.97;;
20324;SDS011;10320;49.482;11.256;2022-11-06T14:49:22;10.70;;;9.60;;
20324;SDS011;10320;49.482;11.256;2022-11-06T14:51:57;11.30;;;9.63;;
20324;SDS011;10320;49.482;11.256;2022-11-06T14:54:23;10.57;;;9.50;;
20324;SDS011;10320;49.482;11.256;2022-11-06T14:56:53;10.37;;;9.37;;
20324;SDS011;10320;49.482;11.256;2022-11-06T14:59:30;10.07;;;9.07;;
20324;SDS011;10320;49.482;11.256;2022-11-06T15:01:59;10.30;;;9.23;;
20324;SDS011;10320;49.482;11.256;2022-11-06T15:04:31;12.47;;;10.13;;
20324;SDS011;10320;49.482;11.256;2022-11-06T15:07:05;11.70;;;9.80;;
20324;SDS011;10320;49.482;11.256;2022-11-06T15:12:07;11.17;;;9.90;;
20324;SDS011;10320;49.482;11.256;2022-11-06T15:17:03;11.27;;;10.17;;
20324;SDS011;10320;49.482;11.256;2022-11-06T15:19:31;11.17;;;9.83;;
20324;SDS011;10320;49.482;11.256;2022-11-06T15:22:07;12.40;;;10.50;;
20324;SDS011;10320;49.482;11.256;2022-11-06T15:27:25;11.40;;;9.57;;
20324;SDS011;10320;49.482;11.256;2022-11-06T15:29:53;10.20;;;9.10;;
20324;SDS011;10320;49.482;11.256;2022-11-06T15:32:22;11.33;;;9.50;;
20324;SDS011;10320;49.482;11.256;2022-11-06T15:35:08;10.70;;;9.57;;
20324;SDS011;10320;49.482;11.256;2022-11-06T15:37:45;11.13;;;9.03;;
20324;SDS011;10320;49.482;11.256;2022-11-06T15:40:28;11.53;;;10.30;;
20324;SDS011;10320;49.482;11.256;2022-11-06T15:42:56;11.70;;;9.43;;
20324;SDS011;10320;49.482;11.256;2022-11-06T15:45:24;10.83;;;9.10;;
20324;SDS011;10320;49.482;11.256;2022-11-06T15:47:51;10.93;;;9.70;;
20324;SDS011;10320;49.482;11.256;2022-11-06T15:50:19;11.20;;;9.83;;
20324;SDS011;10320;49.482;11.256;2022-11-06T15:52:45;11.50;;;10.10;;
20324;SDS011;10320;49.482;11.256;2022-11-06T15:55:23;11.30;;;10.03;;
20324;SDS011;10320;49.482;11.256;2022-11-06T15:57:49;12.20;;;9.77;;
20324;SDS011;10320;49.482;11.256;2022-11-06T16:00:16;12.07;;;9.67;;
20324;SDS011;10320;49.482;11.256;2022-11-06T16:05:21;11.67;;;9.37;;
20324;SDS011;10320;49.482;11.256;2022-11-06T16:07:47;12.83;;;10.13;;
20324;SDS011;10320;49.482;11.256;2022-11-06T16:10:14;16.83;;;12.90;;
20324;SDS011;10320;49.482;11.256;2022-11-06T16:12:41;22.33;;;19.93;;
20324;SDS011;10320;49.482;11.256;2022-11-06T16:15:43;16.97;;;13.90;;
20324;SDS011;10320;49.482;11.256;2022-11-06T16:18:01;15.13;;;11.03;;
20324;SDS011;10320;49.482;11.256;2022-11-06T16:20:27;13.73;;;10.70;;
20324;SDS011;10320;49.482;11.256;2022-11-06T16:22:53;17.37;;;13.90;;
20324;SDS011;10320;49.482;11.256;2022-11-06T16:25:19;16.20;;;12.20;;
20324;SDS011;10320;49.482;11.256;2022-11-06T16:27:46;15.40;;;12.07;;
20324;SDS011;10320;49.482;11.256;2022-11-06T16:30:19;15.73;;;11.80;;
20324;SDS011;10320;49.482;11.256;2022-11-06T16:32:45;14.33;;;11.53;;
20324;SDS011;10320;49.482;11.256;2022-11-06T16:35:31;15.90;;;12.30;;
20324;SDS011;10320;49.482;11.256;2022-11-06T16:40:50;15.90;;;11.93;;
20324;SDS011;10320;49.482;11.256;2022-11-06T16:43:17;15.67;;;12.10;;